createdAt,value
2023-04-16T00:01:29.503Z,95837.09
2023-04-16T00:03:57.838Z,95829.81
2023-04-16T00:06:25.859Z,95836.53
2023-04-16T00:08:54.053Z,95842.84
2023-04-16T00:11:22.273Z,95843.06
2023-04-16T00:13:50.533Z,95857.13
2023-04-16T00:16:18.614Z,95861.00
2023-04-16T00:18:46.916Z,95855.31
2023-04-16T00:21:14.825Z,95863.66
2023-04-16T00:23:42.922Z,95870.94
2023-04-16T00:26:10.643Z,95871.06
2023-04-16T00:28:42.111Z,95886.19
2023-04-16T00:31:09.894Z,95885.88
2023-04-16T00:33:37.952Z,95883.09
2023-04-16T00:36:05.965Z,95890.03
2023-04-16T00:38:34.188Z,95899.91
2023-04-16T00:41:02.041Z,95914.91
2023-04-16T00:43:31.993Z,95912.09
2023-04-16T00:46:00.147Z,95911.19
2023-04-16T00:48:28.424Z,95911.47
2023-04-16T00:50:56.543Z,95918.09
2023-04-16T00:53:25.088Z,95910.94
2023-04-16T00:55:53.847Z,95924.03
2023-04-16T00:58:22.289Z,95920.47
2023-04-16T01:00:51.312Z,95923.38
2023-04-16T01:03:19.790Z,95916.59
2023-04-16T01:05:49.640Z,95915.69
2023-04-16T01:08:18.930Z,95910.13
2023-04-16T01:10:46.855Z,95907.97
2023-04-16T01:13:15.191Z,95910.00
2023-04-16T01:15:43.004Z,95919.88
2023-04-16T01:18:18.600Z,95929.59
2023-04-16T01:20:55.590Z,95938.06
2023-04-16T01:23:23.726Z,95946.25
2023-04-16T01:25:51.572Z,95960.59
2023-04-16T01:28:19.966Z,95951.97
2023-04-16T01:30:47.851Z,95941.16
2023-04-16T01:33:51.259Z,95951.50
2023-04-16T01:36:19.366Z,95965.66
2023-04-16T01:38:47.609Z,95970.31
2023-04-16T01:41:15.885Z,95968.44
2023-04-16T01:43:44.013Z,95969.09
2023-04-16T01:46:32.502Z,95970.09
2023-04-16T01:49:01.890Z,95976.09
2023-04-16T01:51:29.651Z,95977.19
2023-04-16T01:53:58.547Z,95980.75
2023-04-16T01:56:26.874Z,95977.97
2023-04-16T01:58:55.353Z,95984.94
2023-04-16T02:01:24.737Z,95998.03
2023-04-16T02:03:53.789Z,96005.94
2023-04-16T02:06:21.762Z,96005.16
2023-04-16T02:08:49.951Z,96006.84
2023-04-16T02:11:17.698Z,96013.16
2023-04-16T02:13:46.394Z,96011.88
2023-04-16T02:16:14.286Z,96015.91
2023-04-16T02:19:10.808Z,96015.25
2023-04-16T02:21:38.837Z,96022.34
2023-04-16T02:24:07.180Z,96031.59
2023-04-16T02:26:35.742Z,96037.06
2023-04-16T02:29:09.283Z,96037.34
2023-04-16T02:31:42.702Z,96038.22
2023-04-16T02:34:12.014Z,96045.47
2023-04-16T02:36:39.670Z,96059.34
2023-04-16T02:39:07.935Z,96053.03
2023-04-16T02:41:36.474Z,96064.13
2023-04-16T02:44:04.865Z,96067.66
2023-04-16T02:46:32.629Z,96070.13
2023-04-16T02:49:00.909Z,96074.00
2023-04-16T02:51:29.397Z,96074.91
2023-04-16T02:53:58.028Z,96079.75
2023-04-16T02:56:25.995Z,96080.22
2023-04-16T02:58:54.132Z,96080.22
2023-04-16T03:01:22.044Z,96087.50
2023-04-16T03:03:50.628Z,96088.03
2023-04-16T03:06:18.387Z,96091.72
2023-04-16T03:08:46.611Z,96091.66
2023-04-16T03:11:14.324Z,96091.34
2023-04-16T03:13:42.368Z,96094.81
2023-04-16T03:16:11.174Z,96098.31
2023-04-16T03:18:39.334Z,96102.63
2023-04-16T03:21:07.098Z,96096.34
2023-04-16T03:23:36.627Z,96105.00
2023-04-16T03:26:05.252Z,96101.19
2023-04-16T03:28:33.705Z,96086.78
2023-04-16T03:31:01.746Z,96092.72
2023-04-16T03:33:30.304Z,96093.22
2023-04-16T03:35:59.161Z,96094.34
2023-04-16T03:38:30.874Z,96107.94
2023-04-16T03:41:00.060Z,96099.44
2023-04-16T03:43:28.482Z,96111.22
2023-04-16T03:45:56.805Z,96117.72
2023-04-16T03:48:25.768Z,96116.31
2023-04-16T03:50:54.715Z,96123.28
2023-04-16T03:53:23.348Z,96127.47
2023-04-16T03:55:52.059Z,96123.28
2023-04-16T03:58:21.395Z,96125.78
2023-04-16T04:00:49.281Z,96129.84
2023-04-16T04:03:19.410Z,96132.94
2023-04-16T04:05:50.410Z,96138.19
2023-04-16T04:08:26.316Z,96135.75
2023-04-16T04:10:54.337Z,96146.25
2023-04-16T04:13:24.271Z,96148.13
2023-04-16T04:15:53.020Z,96144.56
2023-04-16T04:18:22.439Z,96147.81
2023-04-16T04:20:50.272Z,96140.38
2023-04-16T04:23:20.889Z,96143.00
2023-04-16T04:25:49.144Z,96141.69
2023-04-16T04:28:17.592Z,96143.22
2023-04-16T04:30:45.281Z,96144.19
2023-04-16T04:33:14.042Z,96159.78
2023-04-16T04:35:42.797Z,96153.34
2023-04-16T04:38:11.041Z,96163.00
2023-04-16T04:40:39.461Z,96167.03
2023-04-16T04:43:09.405Z,96166.88
2023-04-16T04:45:37.225Z,96176.94
2023-04-16T04:48:07.987Z,96169.22
2023-04-16T04:50:37.075Z,96178.81
2023-04-16T04:53:10.240Z,96181.59
2023-04-16T04:55:40.388Z,96165.25
2023-04-16T04:58:09.306Z,96175.16
2023-04-16T05:00:37.968Z,96171.00
2023-04-16T05:03:11.502Z,96159.13
2023-04-16T05:05:42.097Z,96169.16
2023-04-16T05:08:10.334Z,96169.66
2023-04-16T05:10:38.125Z,96175.47
2023-04-16T05:13:06.307Z,96182.16
2023-04-16T05:15:34.045Z,96178.25
2023-04-16T05:18:02.300Z,96184.88
2023-04-16T05:20:30.451Z,96169.28
2023-04-16T05:22:58.485Z,96176.28
2023-04-16T05:25:26.447Z,96162.19
2023-04-16T05:27:54.626Z,96167.16
2023-04-16T05:30:22.417Z,96175.06
2023-04-16T05:32:50.590Z,96178.00
2023-04-16T05:35:18.399Z,96175.25
2023-04-16T05:37:46.606Z,96175.38
2023-04-16T05:40:14.858Z,96182.97
2023-04-16T05:42:43.034Z,96184.81
2023-04-16T05:45:11.204Z,96178.66
2023-04-16T05:47:39.321Z,96183.47
2023-04-16T05:50:07.697Z,96183.94
2023-04-16T05:52:35.996Z,96193.41
2023-04-16T05:55:03.939Z,96192.03
2023-04-16T05:57:33.502Z,96186.13
2023-04-16T06:00:01.396Z,96183.19
2023-04-16T06:02:32.005Z,96184.44
2023-04-16T06:04:59.886Z,96189.69
2023-04-16T06:07:28.244Z,96177.78
2023-04-16T06:09:56.208Z,96187.69
2023-04-16T06:12:24.467Z,96184.91
2023-04-16T06:14:52.158Z,96185.50
2023-04-16T06:17:20.304Z,96185.78
2023-04-16T06:19:48.186Z,96198.19
2023-04-16T06:22:16.413Z,96193.53
2023-04-16T06:24:44.131Z,96188.47
2023-04-16T06:27:12.325Z,96198.53
2023-04-16T06:29:41.391Z,96182.91
2023-04-16T06:32:09.932Z,96180.25
2023-04-16T06:34:39.092Z,96180.56
2023-04-16T06:37:10.407Z,96188.16
2023-04-16T06:39:38.567Z,96177.28
2023-04-16T06:42:06.863Z,96189.22
2023-04-16T06:44:35.651Z,96178.38
2023-04-16T06:47:03.790Z,96182.22
2023-04-16T06:49:31.780Z,96174.00
2023-04-16T06:51:59.914Z,96181.13
2023-04-16T06:54:27.597Z,96175.22
2023-04-16T06:56:55.958Z,96179.81
2023-04-16T06:59:23.974Z,96182.72
2023-04-16T07:01:53.140Z,96184.94
2023-04-16T07:04:21.495Z,96184.16
2023-04-16T07:06:49.799Z,96179.03
2023-04-16T07:09:18.279Z,96179.44
2023-04-16T07:11:47.391Z,96171.66
2023-04-16T07:14:15.204Z,96176.25
2023-04-16T07:16:43.429Z,96162.00
2023-04-16T07:19:11.906Z,96163.38
2023-04-16T07:21:42.294Z,96165.94
2023-04-16T07:24:12.845Z,96168.75
2023-04-16T07:26:41.286Z,96172.00
2023-04-16T07:29:09.111Z,96159.53
2023-04-16T07:31:37.647Z,96160.72
2023-04-16T07:34:05.714Z,96156.19
2023-04-16T07:36:33.811Z,96149.81
2023-04-16T07:39:01.641Z,96158.97
2023-04-16T07:41:32.739Z,96149.81
2023-04-16T07:44:00.757Z,96154.69
2023-04-16T07:46:39.332Z,96155.13
2023-04-16T07:49:11.371Z,96154.94
2023-04-16T07:51:39.747Z,96147.63
2023-04-16T07:54:07.657Z,96149.22
2023-04-16T07:56:36.519Z,96153.56
2023-04-16T07:59:18.440Z,96165.56
2023-04-16T08:01:50.859Z,96148.97
2023-04-16T08:04:25.510Z,96142.38
2023-04-16T08:06:54.868Z,96149.41
2023-04-16T08:09:24.048Z,96135.59
2023-04-16T08:11:52.319Z,96138.13
2023-04-16T08:14:20.868Z,96147.69
2023-04-16T08:16:48.991Z,96141.91
2023-04-16T08:19:16.758Z,96134.63
2023-04-16T08:21:44.862Z,96140.66
2023-04-16T08:24:12.708Z,96144.41
2023-04-16T08:26:40.780Z,96131.50
2023-04-16T08:29:08.717Z,96141.34
2023-04-16T08:31:37.301Z,96138.66
2023-04-16T08:34:05.008Z,96135.75
2023-04-16T08:36:33.141Z,96126.00
2023-04-16T08:39:01.126Z,96118.00
2023-04-16T08:41:32.708Z,96134.88
2023-04-16T08:44:05.208Z,96124.75
2023-04-16T08:46:37.848Z,96115.78
2023-04-16T08:49:07.781Z,96122.03
2023-04-16T08:51:37.076Z,96121.88
2023-04-16T08:54:09.229Z,96115.97
2023-04-16T08:56:42.812Z,96121.69
2023-04-16T08:59:11.366Z,96107.38
2023-04-16T09:01:41.961Z,96118.41
2023-04-16T09:04:10.214Z,96119.81
2023-04-16T09:06:39.291Z,96110.25
2023-04-16T09:09:09.337Z,96116.53
2023-04-16T09:11:39.682Z,96119.34
2023-04-16T09:14:11.551Z,96118.00
2023-04-16T09:16:40.422Z,96124.47
2023-04-16T09:19:08.642Z,96112.59
2023-04-16T09:21:37.402Z,96118.25
2023-04-16T09:24:05.813Z,96107.53
2023-04-16T09:26:34.671Z,96114.50
2023-04-16T09:29:02.993Z,96129.09
2023-04-16T09:31:31.293Z,96123.00
2023-04-16T09:34:03.194Z,96127.56
2023-04-16T09:36:33.006Z,96121.22
2023-04-16T09:39:01.546Z,96115.69
2023-04-16T09:41:36.328Z,96120.22
2023-04-16T09:44:05.541Z,96125.13
2023-04-16T09:46:52.081Z,96119.03
2023-04-16T09:49:19.806Z,96122.56
2023-04-16T09:51:51.253Z,96121.72
2023-04-16T09:54:20.362Z,96128.78
2023-04-16T09:56:48.424Z,96116.78
2023-04-16T09:59:20.900Z,96127.53
2023-04-16T10:01:50.149Z,96121.88
2023-04-16T10:04:18.071Z,96130.88
2023-04-16T10:07:04.677Z,96135.19
2023-04-16T10:09:42.265Z,96134.59
2023-04-16T10:12:13.014Z,96133.25
2023-04-16T10:14:41.607Z,96124.50
2023-04-16T10:17:10.236Z,96125.78
2023-04-16T10:19:38.541Z,96127.97
2023-04-16T10:22:06.709Z,96126.38
2023-04-16T10:24:35.261Z,96131.28
2023-04-16T10:27:03.626Z,96138.63
2023-04-16T10:29:32.287Z,96132.50
2023-04-16T10:32:01.414Z,96134.16
2023-04-16T10:34:30.043Z,96135.63
2023-04-16T10:36:58.124Z,96129.22
2023-04-16T10:39:29.772Z,96123.47
2023-04-16T10:42:12.609Z,96131.47
2023-04-16T10:44:44.328Z,96121.00
2023-04-16T10:47:14.772Z,96122.63
2023-04-16T10:49:44.039Z,96130.34
2023-04-16T10:52:15.144Z,96116.94
2023-04-16T10:54:43.065Z,96121.66
2023-04-16T10:57:16.617Z,96126.22
2023-04-16T10:59:45.591Z,96116.59
2023-04-16T11:02:18.536Z,96117.97
2023-04-16T11:04:49.452Z,96123.38
2023-04-16T11:07:31.751Z,96122.00
2023-04-16T11:10:07.527Z,96122.88
2023-04-16T11:12:35.613Z,96112.38
2023-04-16T11:15:10.967Z,96114.81
2023-04-16T11:17:52.266Z,96119.31
2023-04-16T11:20:22.795Z,96106.31
2023-04-16T11:22:53.054Z,96122.19
2023-04-16T11:25:23.105Z,96112.81
2023-04-16T11:27:53.024Z,96114.22
2023-04-16T11:30:30.069Z,96114.69
2023-04-16T11:32:58.265Z,96115.75
2023-04-16T11:35:26.489Z,96117.72
2023-04-16T11:37:58.791Z,96112.59
2023-04-16T11:40:30.662Z,96120.13
2023-04-16T11:43:04.116Z,96117.53
2023-04-16T11:45:32.153Z,96114.84
2023-04-16T11:48:00.338Z,96111.06
2023-04-16T11:50:29.415Z,96114.69
2023-04-16T11:53:03.550Z,96109.59
2023-04-16T11:55:31.675Z,96112.25
2023-04-16T11:58:12.112Z,96119.25
2023-04-16T12:00:40.244Z,96112.44
2023-04-16T12:03:08.743Z,96110.09
2023-04-16T12:05:39.204Z,96114.44
2023-04-16T12:08:11.741Z,96113.00
2023-04-16T12:11:08.984Z,96113.81
2023-04-16T12:13:40.397Z,96102.28
2023-04-16T12:16:19.162Z,96103.16
2023-04-16T12:19:04.382Z,96097.72
2023-04-16T12:21:40.227Z,96102.16
2023-04-16T12:24:10.515Z,96109.78
2023-04-16T12:26:42.741Z,96094.56
2023-04-16T12:29:20.069Z,96089.88
2023-04-16T12:31:51.753Z,96099.50
2023-04-16T12:34:21.893Z,96105.25
2023-04-16T12:37:12.566Z,96105.66
2023-04-16T12:39:40.780Z,96104.69
2023-04-16T12:42:11.558Z,96107.03
2023-04-16T12:44:39.796Z,96102.84
2023-04-16T12:47:07.631Z,96101.72
2023-04-16T12:49:36.748Z,96105.09
2023-04-16T12:52:04.756Z,96114.25
2023-04-16T12:54:33.060Z,96124.16
2023-04-16T12:57:01.020Z,96114.91
2023-04-16T12:59:29.095Z,96121.41
2023-04-16T13:01:57.271Z,96118.59
2023-04-16T13:04:26.003Z,96119.22
2023-04-16T13:06:53.833Z,96115.94
2023-04-16T13:09:22.056Z,96112.13
2023-04-16T13:11:50.017Z,96115.94
2023-04-16T13:14:18.155Z,96121.81
2023-04-16T13:16:46.006Z,96121.44
2023-04-16T13:19:14.501Z,96117.66
2023-04-16T13:21:42.305Z,96131.47
2023-04-16T13:24:10.620Z,96124.00
2023-04-16T13:26:38.513Z,96118.91
2023-04-16T13:29:06.636Z,96115.84
2023-04-16T13:31:34.539Z,96118.06
2023-04-16T13:34:03.800Z,96127.44
2023-04-16T13:36:33.352Z,96117.66
2023-04-16T13:39:01.756Z,96129.56
2023-04-16T13:41:29.554Z,96126.50
2023-04-16T13:43:57.757Z,96125.34
2023-04-16T13:46:26.860Z,96121.34
2023-04-16T13:48:55.393Z,96129.41
2023-04-16T13:51:23.265Z,96127.06
2023-04-16T13:53:51.468Z,96124.94
2023-04-16T13:56:19.490Z,96133.56
2023-04-16T13:58:47.534Z,96126.97
2023-04-16T14:01:15.595Z,96131.13
2023-04-16T14:03:43.993Z,96138.66
2023-04-16T14:06:11.858Z,96128.03
2023-04-16T14:08:40.267Z,96126.88
2023-04-16T14:11:09.430Z,96135.19
2023-04-16T14:13:37.813Z,96138.94
2023-04-16T14:16:06.076Z,96138.56
2023-04-16T14:18:34.518Z,96129.69
2023-04-16T14:21:02.428Z,96142.59
2023-04-16T14:23:30.565Z,96143.47
2023-04-16T14:25:58.414Z,96139.16
2023-04-16T14:28:26.520Z,96142.13
2023-04-16T14:30:54.273Z,96146.16
2023-04-16T14:33:22.501Z,96148.19
2023-04-16T14:35:51.591Z,96149.50
2023-04-16T14:38:19.757Z,96154.03
2023-04-16T14:40:48.947Z,96152.50
2023-04-16T14:43:17.303Z,96156.00
2023-04-16T14:45:45.086Z,96159.81
2023-04-16T14:48:13.212Z,96154.63
2023-04-16T14:50:44.277Z,96165.03
2023-04-16T14:53:12.675Z,96167.06
2023-04-16T14:55:40.825Z,96161.72
2023-04-16T14:58:08.890Z,96172.84
2023-04-16T15:00:36.877Z,96164.16
2023-04-16T15:03:06.103Z,96170.31
2023-04-16T15:05:35.922Z,96177.50
2023-04-16T15:08:05.765Z,96172.06
2023-04-16T15:10:33.773Z,96180.94
2023-04-16T15:13:01.840Z,96180.94
2023-04-16T15:15:29.629Z,96185.00
2023-04-16T15:17:58.317Z,96184.56
2023-04-16T15:20:26.515Z,96178.25
2023-04-16T15:22:54.850Z,96185.94
2023-04-16T15:25:23.672Z,96190.34
2023-04-16T15:27:52.357Z,96186.75
2023-04-16T15:30:20.311Z,96190.72
2023-04-16T15:32:48.491Z,96192.78
2023-04-16T15:35:16.525Z,96211.56
2023-04-16T15:37:44.824Z,96199.22
2023-04-16T15:40:12.609Z,96207.69
2023-04-16T15:42:40.624Z,96200.22
2023-04-16T15:45:08.619Z,96213.28
2023-04-16T15:47:37.936Z,96223.38
2023-04-16T15:50:07.218Z,96224.31
2023-04-16T15:52:36.667Z,96227.59
2023-04-16T15:55:04.845Z,96223.56
2023-04-16T15:57:32.960Z,96230.94
2023-04-16T16:00:10.578Z,96226.53
2023-04-16T16:02:42.079Z,96234.63
2023-04-16T16:05:12.170Z,96235.56
2023-04-16T16:07:41.697Z,96232.81
2023-04-16T16:10:11.883Z,96245.38
2023-04-16T16:12:41.033Z,96247.69
2023-04-16T16:15:11.378Z,96247.69
2023-04-16T16:17:40.964Z,96254.03
2023-04-16T16:20:10.795Z,96255.34
2023-04-16T16:22:39.548Z,96253.16
2023-04-16T16:25:07.882Z,96256.88
2023-04-16T16:27:36.666Z,96267.31
2023-04-16T16:30:07.505Z,96269.16
2023-04-16T16:32:36.237Z,96269.94
2023-04-16T16:35:04.602Z,96266.06
2023-04-16T16:37:32.742Z,96284.03
2023-04-16T16:40:00.681Z,96284.03
2023-04-16T16:42:28.929Z,96292.09
2023-04-16T16:44:57.656Z,96300.50
2023-04-16T16:47:26.410Z,96299.88
2023-04-16T16:49:54.931Z,96306.09
2023-04-16T16:52:24.424Z,96309.50
2023-04-16T16:54:54.047Z,96306.88
2023-04-16T16:57:24.075Z,96320.97
2023-04-16T16:59:51.787Z,96320.03
2023-04-16T17:02:20.071Z,96320.97
2023-04-16T17:04:47.857Z,96324.06
2023-04-16T17:07:16.223Z,96325.00
2023-04-16T17:09:44.346Z,96328.09
2023-04-16T17:12:12.677Z,96325.00
2023-04-16T17:14:40.355Z,96342.81
2023-04-16T17:17:08.689Z,96341.91
2023-04-16T17:19:36.515Z,96336.94
2023-04-16T17:22:05.387Z,96341.59
2023-04-16T17:24:33.440Z,96344.22
2023-04-16T17:27:02.402Z,96345.16
2023-04-16T17:29:31.422Z,96354.47
2023-04-16T17:31:59.594Z,96346.09
2023-04-16T17:34:27.480Z,96349.50
2023-04-16T17:36:55.542Z,96368.38
2023-04-16T17:39:23.436Z,96365.13
2023-04-16T17:41:54.934Z,96362.31
2023-04-16T17:44:25.885Z,96365.59
2023-04-16T17:46:54.122Z,96371.47
2023-04-16T17:49:21.931Z,96369.91
2023-04-16T17:51:50.099Z,96372.09
2023-04-16T17:54:18.043Z,96373.34
2023-04-16T17:56:46.491Z,96376.72
2023-04-16T17:59:14.327Z,96378.16
2023-04-16T18:01:42.555Z,96365.59
2023-04-16T18:04:11.288Z,96380.00
2023-04-16T18:06:39.885Z,96379.22
2023-04-16T18:09:07.578Z,96384.53
2023-04-16T18:11:36.071Z,96381.41
2023-04-16T18:14:04.125Z,96374.53
2023-04-16T18:16:32.550Z,96369.56
2023-04-16T18:19:00.716Z,96379.66
2023-04-16T18:21:30.617Z,96382.28
2023-04-16T18:23:58.458Z,96391.13
2023-04-16T18:26:29.673Z,96384.41
2023-04-16T18:28:58.234Z,96376.63
2023-04-16T18:31:26.861Z,96381.31
2023-04-16T18:33:57.821Z,96384.09
2023-04-16T18:36:27.674Z,96382.56
2023-04-16T18:39:15.254Z,96388.16
2023-04-16T18:41:43.998Z,96382.22
2023-04-16T18:44:11.738Z,96385.50
2023-04-16T18:46:39.879Z,96379.09
2023-04-16T18:49:08.036Z,96380.50
2023-04-16T18:51:36.176Z,96385.00
2023-04-16T18:54:03.958Z,96388.72
2023-04-16T18:56:32.120Z,96383.91
2023-04-16T18:58:59.974Z,96384.03
2023-04-16T19:01:28.104Z,96379.72
2023-04-16T19:03:56.365Z,96389.31
2023-04-16T19:06:24.596Z,96385.59
2023-04-16T19:08:52.404Z,96384.59
2023-04-16T19:11:20.984Z,96394.50
2023-04-16T19:13:48.939Z,96392.19
2023-04-16T19:16:17.288Z,96398.13
2023-04-16T19:18:45.229Z,96392.25
2023-04-16T19:21:13.268Z,96391.41
2023-04-16T19:23:41.018Z,96392.41
2023-04-16T19:26:09.198Z,96395.91
2023-04-16T19:28:39.008Z,96397.59
2023-04-16T19:31:09.081Z,96391.56
2023-04-16T19:33:36.837Z,96395.09
2023-04-16T19:36:05.179Z,96400.47
2023-04-16T19:38:32.885Z,96403.00
2023-04-16T19:41:01.248Z,96411.38
2023-04-16T19:43:31.065Z,96411.53
2023-04-16T19:45:59.683Z,96409.25
2023-04-16T19:48:27.556Z,96418.78
2023-04-16T19:50:55.687Z,96405.63
2023-04-16T19:53:24.716Z,96414.16
2023-04-16T19:55:52.812Z,96412.09
2023-04-16T19:58:20.566Z,96410.19
2023-04-16T20:00:48.783Z,96411.78
2023-04-16T20:03:16.758Z,96410.03
2023-04-16T20:05:48.846Z,96414.59
2023-04-16T20:08:16.806Z,96415.06
2023-04-16T20:10:45.535Z,96421.53
2023-04-16T20:13:14.357Z,96415.78
2023-04-16T20:15:44.073Z,96426.00
2023-04-16T20:18:13.059Z,96421.22
2023-04-16T20:20:41.755Z,96413.53
2023-04-16T20:23:09.549Z,96411.19
2023-04-16T20:25:46.952Z,96414.25
2023-04-16T20:28:21.404Z,96415.00
2023-04-16T20:30:51.244Z,96416.56
2023-04-16T20:33:19.234Z,96418.50
2023-04-16T20:35:47.665Z,96417.47
2023-04-16T20:38:15.420Z,96422.25
2023-04-16T20:40:45.008Z,96417.09
2023-04-16T20:43:14.473Z,96414.63
2023-04-16T20:45:46.414Z,96415.53
2023-04-16T20:48:14.391Z,96410.88
2023-04-16T20:50:42.481Z,96412.41
2023-04-16T20:53:10.245Z,96403.31
2023-04-16T20:55:38.361Z,96405.75
2023-04-16T20:58:06.062Z,96413.34
2023-04-16T21:00:34.360Z,96405.38
2023-04-16T21:03:02.441Z,96407.94
2023-04-16T21:05:30.866Z,96400.63
2023-04-16T21:07:58.803Z,96403.88
2023-04-16T21:10:27.451Z,96406.19
2023-04-16T21:12:55.108Z,96410.34
2023-04-16T21:15:23.402Z,96402.91
2023-04-16T21:17:51.100Z,96406.38
2023-04-16T21:20:19.562Z,96404.50
2023-04-16T21:22:47.349Z,96397.38
2023-04-16T21:25:16.175Z,96405.72
2023-04-16T21:27:43.845Z,96403.84
2023-04-16T21:30:12.669Z,96399.63
2023-04-16T21:32:40.569Z,96405.19
2023-04-16T21:35:09.238Z,96398.09
2023-04-16T21:37:37.517Z,96389.06
2023-04-16T21:40:06.849Z,96399.88
2023-04-16T21:42:40.122Z,96387.31
2023-04-16T21:45:09.767Z,96391.16
2023-04-16T21:47:38.469Z,96387.22
2023-04-16T21:50:07.232Z,96392.78
2023-04-16T21:52:40.593Z,96388.44
2023-04-16T21:55:12.390Z,96391.59
2023-04-16T21:57:40.280Z,96380.78
2023-04-16T22:00:18.656Z,96382.25
2023-04-16T22:02:46.659Z,96383.47
2023-04-16T22:05:15.080Z,96374.81
2023-04-16T22:07:42.905Z,96382.25
2023-04-16T22:10:14.462Z,96382.47
2023-04-16T22:12:45.183Z,96373.03
2023-04-16T22:15:14.400Z,96373.16
2023-04-16T22:17:42.576Z,96372.94
2023-04-16T22:20:14.357Z,96371.97
2023-04-16T22:22:42.963Z,96378.63
2023-04-16T22:25:29.015Z,96374.75
2023-04-16T22:27:57.152Z,96374.75
2023-04-16T22:30:25.059Z,96376.97
2023-04-16T22:32:53.236Z,96379.75
2023-04-16T22:35:21.144Z,96383.41
2023-04-16T22:37:49.440Z,96377.84
2023-04-16T22:40:17.210Z,96368.63
2023-04-16T22:42:45.348Z,96385.41
2023-04-16T22:45:13.234Z,96382.63
2023-04-16T22:47:42.059Z,96377.09
2023-04-16T22:50:11.018Z,96377.75
2023-04-16T22:52:39.389Z,96377.53
2023-04-16T22:55:07.798Z,96377.97
2023-04-16T22:57:36.072Z,96378.41
2023-04-16T23:00:06.818Z,96379.66
2023-04-16T23:02:35.113Z,96378.66
2023-04-16T23:05:03.357Z,96379.88
2023-04-16T23:07:31.536Z,96382.75
2023-04-16T23:09:59.285Z,96381.75
2023-04-16T23:12:27.528Z,96378.09
2023-04-16T23:14:55.324Z,96376.31
2023-04-16T23:17:23.495Z,96378.00
2023-04-16T23:19:51.369Z,96390.19
2023-04-16T23:22:19.528Z,96393.09
2023-04-16T23:24:47.261Z,96388.88
2023-04-16T23:27:15.802Z,96388.09
2023-04-16T23:29:43.517Z,96383.53
2023-04-16T23:32:11.734Z,96389.09
2023-04-16T23:34:39.429Z,96384.31
2023-04-16T23:37:07.557Z,96383.75
2023-04-16T23:39:35.625Z,96381.41
2023-04-16T23:42:03.819Z,96389.63
2023-04-16T23:44:31.568Z,96384.66
2023-04-16T23:47:00.237Z,96395.19
2023-04-16T23:49:28.029Z,96385.06
2023-04-16T23:51:56.111Z,96396.75
2023-04-16T23:54:24.025Z,96391.63
2023-04-16T23:56:52.324Z,96391.19
2023-04-16T23:59:20.322Z,96388.97
